CST1033 CYUL-KPVD
Flight info
| Callsign | CST1033 |
|---|---|
| Flight time | 1h 0m |
| Altitude | 35000 |
| Route | VIRKA DCT ENE/N0387F170 V167 SCUPP/N0382F160 V167 PVD |
| Aircraft | E195/M-SDE3GILORVW/S |
Departure
| Time | 2026-05-04 20:13 |
|---|---|
| Airport | Montreal / Pierre Elliott Trudeau International Airport (CYUL) |
Arrival
| Time | 2026-05-04 21:13 |
|---|---|
| Airport | Rhode Island T. F. Green International Airport (KPVD) |
| Time | Latitude | Longitude | Altitude | Speed | Heading |
|---|---|---|---|---|---|
| 2026-05-04 19:44 | 45.45924 | -73.75043 | 103 ft | 0 kts | 178° |
| 2026-05-04 20:00 | 45.45945 | -73.75044 | 102 ft | 4 kts | 178° |
| 2026-05-04 20:00 | 45.45972 | -73.75046 | 103 ft | 4 kts | 176° |
| 2026-05-04 20:00 | 45.45999 | -73.75049 | 102 ft | 4 kts | 174° |
| 2026-05-04 20:01 | 45.46023 | -73.75054 | 102 ft | 3 kts | 165° |
| 2026-05-04 20:01 | 45.46037 | -73.75061 | 102 ft | 2 kts | 147° |
| 2026-05-04 20:01 | 45.46045 | -73.75072 | 102 ft | 2 kts | 115° |
| 2026-05-04 20:01 | 45.46048 | -73.75081 | 103 ft | 2 kts | 97° |
| 2026-05-04 20:02 | 45.46049 | -73.75097 | 102 ft | 2 kts | 85° |
| 2026-05-04 20:02 | 45.46048 | -73.75114 | 103 ft | 0 kts | 79° |
| 2026-05-04 20:02 | 45.46049 | -73.75111 | 102 ft | 0 kts | 79° |
| 2026-05-04 20:05 | 45.46048 | -73.75104 | 102 ft | 2 kts | 91° |
| 2026-05-04 20:05 | 45.46040 | -73.75079 | 101 ft | 4 kts | 116° |
| 2026-05-04 20:05 | 45.46024 | -73.75042 | 103 ft | 5 kts | 126° |
| 2026-05-04 20:06 | 45.45999 | -73.74994 | 103 ft | 7 kts | 127° |
| 2026-05-04 20:06 | 45.45979 | -73.74919 | 103 ft | 9 kts | 86° |
| 2026-05-04 20:06 | 45.45982 | -73.74810 | 103 ft | 12 kts | 91° |
| 2026-05-04 20:06 | 45.45956 | -73.74683 | 103 ft | 14 kts | 105° |
| 2026-05-04 20:07 | 45.45967 | -73.74533 | 103 ft | 17 kts | 75° |
| 2026-05-04 20:07 | 45.45985 | -73.74367 | 102 ft | 18 kts | 119° |
| 2026-05-04 20:07 | 45.46017 | -73.74218 | 101 ft | 19 kts | 43° |
| 2026-05-04 20:07 | 45.46115 | -73.74094 | 103 ft | 19 kts | 45° |
| 2026-05-04 20:08 | 45.46211 | -73.73964 | 104 ft | 20 kts | 42° |
| 2026-05-04 20:08 | 45.46312 | -73.73831 | 105 ft | 20 kts | 41° |
| 2026-05-04 20:08 | 45.46415 | -73.73696 | 107 ft | 20 kts | 44° |
| 2026-05-04 20:08 | 45.46519 | -73.73557 | 108 ft | 21 kts | 39° |
| 2026-05-04 20:09 | 45.46625 | -73.73419 | 109 ft | 21 kts | 45° |
| 2026-05-04 20:09 | 45.46732 | -73.73278 | 111 ft | 21 kts | 41° |
| 2026-05-04 20:09 | 45.46842 | -73.73135 | 113 ft | 21 kts | 41° |
| 2026-05-04 20:09 | 45.46950 | -73.72993 | 115 ft | 21 kts | 40° |
| 2026-05-04 20:10 | 45.47054 | -73.72863 | 116 ft | 20 kts | 45° |
| 2026-05-04 20:10 | 45.47156 | -73.72721 | 116 ft | 21 kts | 42° |
| 2026-05-04 20:10 | 45.47267 | -73.72578 | 117 ft | 22 kts | 43° |
| 2026-05-04 20:10 | 45.47381 | -73.72428 | 116 ft | 23 kts | 43° |
| 2026-05-04 20:11 | 45.47495 | -73.72279 | 117 ft | 20 kts | 42° |
| 2026-05-04 20:11 | 45.47515 | -73.72168 | 116 ft | 13 kts | 165° |
| 2026-05-04 20:11 | 45.47425 | -73.72191 | 116 ft | 14 kts | 192° |
| 2026-05-04 20:11 | 45.47324 | -73.72222 | 115 ft | 16 kts | 192° |
| 2026-05-04 20:12 | 45.47224 | -73.72233 | 117 ft | 12 kts | 208° |
| 2026-05-04 20:12 | 45.47194 | -73.72272 | 117 ft | 21 kts | 222° |
| 2026-05-04 20:12 | 45.46910 | -73.72643 | 114 ft | 88 kts | 221° |
| 2026-05-04 20:12 | 45.46302 | -73.73441 | 112 ft | 148 kts | 222° |
| 2026-05-04 20:13 | 45.45445 | -73.74557 | 389 ft | 181 kts | 221° |
| 2026-05-04 20:13 | 45.44302 | -73.75524 | 941 ft | 210 kts | 194° |
| 2026-05-04 20:13 | 45.42859 | -73.75162 | 1764 ft | 219 kts | 155° |
| 2026-05-04 20:13 | 45.41617 | -73.73849 | 2642 ft | 224 kts | 139° |
| 2026-05-04 20:14 | 45.40475 | -73.72299 | 3404 ft | 232 kts | 141° |
| 2026-05-04 20:14 | 45.39268 | -73.70694 | 3962 ft | 247 kts | 141° |
| 2026-05-04 20:14 | 45.37974 | -73.68976 | 4563 ft | 262 kts | 141° |
| 2026-05-04 20:14 | 45.36600 | -73.67170 | 5113 ft | 275 kts | 141° |
| 2026-05-04 20:15 | 45.35182 | -73.65272 | 5764 ft | 284 kts | 140° |
| 2026-05-04 20:15 | 45.33728 | -73.63303 | 6398 ft | 292 kts | 140° |
| 2026-05-04 20:15 | 45.32249 | -73.61292 | 7071 ft | 297 kts | 140° |
| 2026-05-04 20:15 | 45.30737 | -73.59233 | 7668 ft | 304 kts | 140° |
| 2026-05-04 20:16 | 45.29204 | -73.57129 | 8316 ft | 309 kts | 140° |
| 2026-05-04 20:16 | 45.27651 | -73.54982 | 8939 ft | 316 kts | 140° |
| 2026-05-04 20:16 | 45.26060 | -73.52757 | 9130 ft | 325 kts | 139° |
| 2026-05-04 20:16 | 45.24485 | -73.50467 | 9123 ft | 322 kts | 138° |
| 2026-05-04 20:17 | 45.22932 | -73.48199 | 9597 ft | 321 kts | 139° |
| 2026-05-04 20:17 | 45.21341 | -73.45957 | 10227 ft | 326 kts | 140° |
| 2026-05-04 20:17 | 45.19685 | -73.43643 | 10556 ft | 342 kts | 140° |
| 2026-05-04 20:17 | 45.17985 | -73.41224 | 11153 ft | 349 kts | 139° |
| 2026-05-04 20:18 | 45.16277 | -73.38770 | 11900 ft | 351 kts | 139° |
| 2026-05-04 20:18 | 45.14576 | -73.36337 | 12672 ft | 353 kts | 139° |
| 2026-05-04 20:18 | 45.12840 | -73.33853 | 13455 ft | 356 kts | 139° |
| 2026-05-04 20:18 | 45.11092 | -73.31324 | 14121 ft | 362 kts | 138° |
| 2026-05-04 20:19 | 45.09330 | -73.28754 | 14818 ft | 366 kts | 138° |
| 2026-05-04 20:19 | 45.07549 | -73.26150 | 15507 ft | 371 kts | 138° |
| 2026-05-04 20:19 | 45.05754 | -73.23504 | 16182 ft | 375 kts | 137° |
| 2026-05-04 20:19 | 45.03943 | -73.20812 | 16880 ft | 380 kts | 137° |
| 2026-05-04 20:20 | 45.02116 | -73.18079 | 17545 ft | 385 kts | 136° |
| 2026-05-04 20:20 | 45.00313 | -73.15250 | 18193 ft | 391 kts | 133° |
| 2026-05-04 20:20 | 44.98582 | -73.12268 | 18800 ft | 394 kts | 132° |
| 2026-05-04 20:20 | 44.96814 | -73.09274 | 19370 ft | 398 kts | 132° |
| 2026-05-04 20:21 | 44.95030 | -73.06262 | 19954 ft | 402 kts | 132° |
| 2026-05-04 20:21 | 44.93224 | -73.03223 | 20524 ft | 405 kts | 132° |
| 2026-05-04 20:21 | 44.89556 | -72.97078 | 21612 ft | 413 kts | 131° |
| 2026-05-04 20:22 | 44.87693 | -72.93967 | 22145 ft | 417 kts | 131° |
| 2026-05-04 20:22 | 44.85809 | -72.90822 | 22701 ft | 421 kts | 131° |
| 2026-05-04 20:22 | 44.83907 | -72.87656 | 23254 ft | 425 kts | 131° |
| 2026-05-04 20:22 | 44.81981 | -72.84452 | 23759 ft | 428 kts | 131° |
| 2026-05-04 20:23 | 44.80046 | -72.81239 | 24263 ft | 432 kts | 131° |
| 2026-05-04 20:23 | 44.78093 | -72.78001 | 24759 ft | 436 kts | 131° |
| 2026-05-04 20:23 | 44.76124 | -72.74738 | 25252 ft | 439 kts | 131° |
| 2026-05-04 20:23 | 44.74137 | -72.71452 | 25715 ft | 443 kts | 131° |
| 2026-05-04 20:24 | 44.72133 | -72.68140 | 26142 ft | 447 kts | 131° |
| 2026-05-04 20:24 | 44.70113 | -72.64806 | 26569 ft | 450 kts | 130° |
| 2026-05-04 20:24 | 44.68076 | -72.61450 | 26981 ft | 453 kts | 130° |
| 2026-05-04 20:24 | 44.66027 | -72.58075 | 27384 ft | 455 kts | 130° |
| 2026-05-04 20:25 | 44.63961 | -72.54678 | 27788 ft | 458 kts | 130° |
| 2026-05-04 20:25 | 44.61883 | -72.51265 | 28152 ft | 461 kts | 130° |
| 2026-05-04 20:25 | 44.59789 | -72.47831 | 28519 ft | 464 kts | 130° |
| 2026-05-04 20:25 | 44.57679 | -72.44375 | 28898 ft | 467 kts | 130° |
| 2026-05-04 20:26 | 44.55584 | -72.40949 | 29256 ft | 470 kts | 130° |
| 2026-05-04 20:26 | 44.53451 | -72.37463 | 29621 ft | 473 kts | 130° |
| 2026-05-04 20:26 | 44.51303 | -72.33955 | 29958 ft | 475 kts | 130° |
| 2026-05-04 20:26 | 44.49144 | -72.30436 | 30242 ft | 477 kts | 130° |
| 2026-05-04 20:27 | 44.46972 | -72.26900 | 30530 ft | 480 kts | 130° |
| 2026-05-04 20:27 | 44.44788 | -72.23348 | 30781 ft | 482 kts | 131° |
| 2026-05-04 20:27 | 44.42593 | -72.19785 | 31030 ft | 484 kts | 131° |
| 2026-05-04 20:27 | 44.40387 | -72.16208 | 31265 ft | 486 kts | 131° |
| 2026-05-04 20:28 | 44.38170 | -72.12616 | 31499 ft | 488 kts | 131° |
| 2026-05-04 20:28 | 44.35947 | -72.09019 | 31730 ft | 490 kts | 131° |
| 2026-05-04 20:28 | 44.33711 | -72.05403 | 31956 ft | 492 kts | 131° |
| 2026-05-04 20:28 | 44.31470 | -72.01786 | 32225 ft | 492 kts | 131° |
| 2026-05-04 20:29 | 44.29226 | -71.98167 | 32540 ft | 492 kts | 131° |
| 2026-05-04 20:29 | 44.26990 | -71.94562 | 32885 ft | 491 kts | 131° |
| 2026-05-04 20:29 | 44.24781 | -71.91004 | 33149 ft | 491 kts | 131° |
| 2026-05-04 20:29 | 44.22544 | -71.87405 | 33434 ft | 491 kts | 131° |
| 2026-05-04 20:30 | 44.20309 | -71.83818 | 33709 ft | 490 kts | 131° |
| 2026-05-04 20:30 | 44.18072 | -71.80230 | 33962 ft | 489 kts | 131° |
| 2026-05-04 20:30 | 44.15842 | -71.76660 | 34200 ft | 487 kts | 131° |
| 2026-05-04 20:30 | 44.13622 | -71.73109 | 34476 ft | 485 kts | 132° |
| 2026-05-04 20:31 | 44.11407 | -71.69571 | 34673 ft | 484 kts | 132° |
| 2026-05-04 20:31 | 44.09201 | -71.66048 | 34881 ft | 485 kts | 132° |
| 2026-05-04 20:31 | 44.04708 | -71.58901 | 34889 ft | 496 kts | 132° |
| 2026-05-04 20:32 | 44.00115 | -71.51604 | 34842 ft | 507 kts | 132° |
| 2026-05-04 20:32 | 43.95446 | -71.44204 | 34810 ft | 510 kts | 132° |
| 2026-05-04 20:33 | 43.90795 | -71.36848 | 34792 ft | 510 kts | 132° |
| 2026-05-04 20:33 | 43.86077 | -71.29398 | 34788 ft | 511 kts | 132° |
| 2026-05-04 20:34 | 43.81424 | -71.22068 | 34788 ft | 510 kts | 132° |
| 2026-05-04 20:34 | 43.76734 | -71.14712 | 34769 ft | 509 kts | 133° |
| 2026-05-04 20:35 | 43.72040 | -71.07370 | 34787 ft | 509 kts | 133° |
| 2026-05-04 20:35 | 43.67348 | -71.00058 | 34787 ft | 508 kts | 133° |
| 2026-05-04 20:36 | 43.62651 | -70.92767 | 34787 ft | 508 kts | 133° |
| 2026-05-04 20:36 | 43.57965 | -70.85464 | 34784 ft | 507 kts | 133° |
| 2026-05-04 20:37 | 43.53288 | -70.78205 | 34782 ft | 506 kts | 133° |
| 2026-05-04 20:37 | 43.48643 | -70.71024 | 34784 ft | 505 kts | 133° |
| 2026-05-04 20:38 | 43.43952 | -70.63834 | 34786 ft | 503 kts | 137° |
| 2026-05-04 20:38 | 43.41188 | -70.60962 | 34789 ft | 495 kts | 156° |
| 2026-05-04 20:38 | 43.38016 | -70.59213 | 34814 ft | 490 kts | 166° |
| 2026-05-04 20:39 | 43.31546 | -70.56231 | 34773 ft | 490 kts | 165° |
| 2026-05-04 20:39 | 43.25109 | -70.53131 | 34790 ft | 490 kts | 164° |
| 2026-05-04 20:40 | 43.18688 | -70.50021 | 34790 ft | 488 kts | 166° |
| 2026-05-04 20:40 | 43.12282 | -70.47105 | 34780 ft | 488 kts | 165° |
| 2026-05-04 20:41 | 43.05850 | -70.44111 | 34780 ft | 488 kts | 165° |
| 2026-05-04 20:41 | 42.99416 | -70.41116 | 34784 ft | 487 kts | 165° |
| 2026-05-04 20:42 | 42.93039 | -70.38152 | 34809 ft | 486 kts | 165° |
| 2026-05-04 20:42 | 42.86635 | -70.35182 | 34816 ft | 485 kts | 165° |
| 2026-05-04 20:43 | 42.80250 | -70.32226 | 34819 ft | 484 kts | 165° |
| 2026-05-04 20:43 | 42.73886 | -70.29287 | 34821 ft | 483 kts | 165° |
| 2026-05-04 20:44 | 42.67530 | -70.26358 | 34835 ft | 481 kts | 166° |
| 2026-05-04 20:44 | 42.61193 | -70.23445 | 34833 ft | 480 kts | 166° |
| 2026-05-04 20:45 | 42.54761 | -70.21141 | 34845 ft | 477 kts | 171° |
| 2026-05-04 20:45 | 42.48353 | -70.19028 | 34845 ft | 477 kts | 171° |
| 2026-05-04 20:46 | 42.41909 | -70.16888 | 34859 ft | 476 kts | 171° |
| 2026-05-04 20:46 | 42.35464 | -70.14746 | 34873 ft | 476 kts | 171° |
| 2026-05-04 20:47 | 42.29042 | -70.12614 | 34964 ft | 477 kts | 171° |
| 2026-05-04 20:47 | 42.22622 | -70.10488 | 35169 ft | 473 kts | 171° |
| 2026-05-04 20:48 | 42.19391 | -70.09422 | 34654 ft | 479 kts | 171° |
| 2026-05-04 20:48 | 42.16184 | -70.08357 | 34162 ft | 471 kts | 171° |
| 2026-05-04 20:48 | 42.13026 | -70.07310 | 33633 ft | 463 kts | 171° |
| 2026-05-04 20:48 | 42.10963 | -70.06627 | 33273 ft | 460 kts | 171° |
| 2026-05-04 20:49 | 42.07854 | -70.05603 | 32713 ft | 462 kts | 171° |
| 2026-05-04 20:49 | 42.04693 | -70.04731 | 32181 ft | 463 kts | 179° |
| 2026-05-04 20:49 | 42.01509 | -70.04849 | 31646 ft | 455 kts | 197° |
| 2026-05-04 20:49 | 41.98596 | -70.06322 | 31131 ft | 444 kts | 216° |
| 2026-05-04 20:50 | 41.95146 | -70.09266 | 30476 ft | 445 kts | 219° |
| 2026-05-04 20:50 | 41.93381 | -70.10804 | 30136 ft | 447 kts | 219° |
| 2026-05-04 20:50 | 41.90759 | -70.13050 | 29581 ft | 449 kts | 218° |
| 2026-05-04 20:50 | 41.88114 | -70.15295 | 29010 ft | 450 kts | 218° |
| 2026-05-04 20:51 | 41.85458 | -70.17535 | 28445 ft | 451 kts | 218° |
| 2026-05-04 20:51 | 41.82842 | -70.19725 | 27893 ft | 447 kts | 217° |
| 2026-05-04 20:51 | 41.80213 | -70.21917 | 27352 ft | 443 kts | 217° |
| 2026-05-04 20:51 | 41.77599 | -70.24086 | 26807 ft | 440 kts | 217° |
| 2026-05-04 20:52 | 41.74998 | -70.26236 | 26288 ft | 437 kts | 217° |
| 2026-05-04 20:52 | 41.72414 | -70.28362 | 25756 ft | 434 kts | 217° |
| 2026-05-04 20:52 | 41.69841 | -70.30471 | 25267 ft | 431 kts | 217° |
| 2026-05-04 20:52 | 41.67294 | -70.32546 | 24770 ft | 422 kts | 216° |
| 2026-05-04 20:53 | 41.64814 | -70.34561 | 24274 ft | 413 kts | 216° |
| 2026-05-04 20:53 | 41.62387 | -70.36527 | 23801 ft | 403 kts | 217° |
| 2026-05-04 20:53 | 41.60267 | -70.38772 | 23291 ft | 385 kts | 232° |
| 2026-05-04 20:53 | 41.58852 | -70.41691 | 22724 ft | 367 kts | 252° |
| 2026-05-04 20:54 | 41.58268 | -70.44913 | 22184 ft | 352 kts | 269° |
| 2026-05-04 20:54 | 41.58468 | -70.48107 | 21649 ft | 342 kts | 283° |
| 2026-05-04 20:54 | 41.58963 | -70.51184 | 21135 ft | 336 kts | 283° |
| 2026-05-04 20:54 | 41.59440 | -70.54219 | 20611 ft | 332 kts | 283° |
| 2026-05-04 20:55 | 41.59911 | -70.57216 | 20133 ft | 327 kts | 283° |
| 2026-05-04 20:55 | 41.60377 | -70.60192 | 19549 ft | 326 kts | 283° |
| 2026-05-04 20:55 | 41.60834 | -70.63159 | 18942 ft | 326 kts | 282° |
| 2026-05-04 20:55 | 41.61281 | -70.66129 | 18331 ft | 326 kts | 282° |
| 2026-05-04 20:56 | 41.61712 | -70.69097 | 17644 ft | 325 kts | 281° |
| 2026-05-04 20:56 | 41.62122 | -70.72065 | 16974 ft | 324 kts | 281° |
| 2026-05-04 20:56 | 41.62512 | -70.75033 | 16312 ft | 324 kts | 280° |
| 2026-05-04 20:56 | 41.62884 | -70.77994 | 15677 ft | 323 kts | 280° |
| 2026-05-04 20:57 | 41.63236 | -70.80916 | 15039 ft | 322 kts | 279° |
| 2026-05-04 20:57 | 41.63629 | -70.83855 | 14449 ft | 321 kts | 282° |
| 2026-05-04 20:57 | 41.64087 | -70.86770 | 13842 ft | 320 kts | 282° |
| 2026-05-04 20:57 | 41.64532 | -70.89683 | 13183 ft | 320 kts | 281° |
| 2026-05-04 20:58 | 41.64977 | -70.92588 | 12523 ft | 318 kts | 282° |
| 2026-05-04 20:58 | 41.65403 | -70.95406 | 11868 ft | 301 kts | 281° |
| 2026-05-04 20:58 | 41.65805 | -70.98085 | 11233 ft | 287 kts | 281° |
| 2026-05-04 20:58 | 41.66187 | -71.00658 | 10598 ft | 277 kts | 282° |
| 2026-05-04 20:59 | 41.66559 | -71.03156 | 9984 ft | 271 kts | 282° |
| 2026-05-04 20:59 | 41.66924 | -71.05611 | 9332 ft | 268 kts | 282° |
| 2026-05-04 20:59 | 41.67287 | -71.08043 | 8677 ft | 266 kts | 282° |
| 2026-05-04 20:59 | 41.67643 | -71.10442 | 8035 ft | 260 kts | 281° |
| 2026-05-04 21:00 | 41.67990 | -71.12799 | 7395 ft | 255 kts | 281° |
| 2026-05-04 21:00 | 41.68330 | -71.15105 | 6775 ft | 250 kts | 281° |
| 2026-05-04 21:00 | 41.68662 | -71.17341 | 6182 ft | 246 kts | 280° |
| 2026-05-04 21:00 | 41.68985 | -71.19542 | 5961 ft | 240 kts | 280° |
| 2026-05-04 21:01 | 41.69308 | -71.21742 | 5706 ft | 241 kts | 279° |
| 2026-05-04 21:01 | 41.69632 | -71.23948 | 5457 ft | 242 kts | 280° |
| 2026-05-04 21:01 | 41.69956 | -71.26161 | 5205 ft | 242 kts | 279° |
| 2026-05-04 21:01 | 41.70280 | -71.28382 | 4993 ft | 242 kts | 279° |
| 2026-05-04 21:02 | 41.70597 | -71.30559 | 5038 ft | 238 kts | 279° |
| 2026-05-04 21:02 | 41.70917 | -71.32747 | 5046 ft | 240 kts | 279° |
| 2026-05-04 21:02 | 41.71240 | -71.34952 | 5057 ft | 242 kts | 279° |
| 2026-05-04 21:02 | 41.71564 | -71.37170 | 5017 ft | 243 kts | 281° |
| 2026-05-04 21:03 | 41.72268 | -71.39225 | 4822 ft | 251 kts | 307° |
| 2026-05-04 21:03 | 41.73765 | -71.40481 | 4569 ft | 263 kts | 340° |
| 2026-05-04 21:03 | 41.75601 | -71.40417 | 4310 ft | 272 kts | 14° |
| 2026-05-04 21:03 | 41.77244 | -71.39123 | 4088 ft | 275 kts | 34° |
| 2026-05-04 21:04 | 41.78732 | -71.37578 | 3813 ft | 273 kts | 33° |
| 2026-05-04 21:04 | 41.80252 | -71.36070 | 3563 ft | 271 kts | 33° |
| 2026-05-04 21:04 | 41.81773 | -71.34576 | 3314 ft | 270 kts | 32° |
| 2026-05-04 21:04 | 41.83291 | -71.33097 | 3006 ft | 271 kts | 34° |
| 2026-05-04 21:05 | 41.84873 | -71.31565 | 2229 ft | 289 kts | 33° |
| 2026-05-04 21:05 | 41.86459 | -71.30093 | 2506 ft | 258 kts | 32° |
| 2026-05-04 21:05 | 41.87852 | -71.28765 | 2748 ft | 241 kts | 40° |
| 2026-05-04 21:05 | 41.88805 | -71.26967 | 2520 ft | 239 kts | 74° |
| 2026-05-04 21:06 | 41.89204 | -71.24799 | 2280 ft | 241 kts | 80° |
| 2026-05-04 21:06 | 41.89654 | -71.22623 | 2025 ft | 244 kts | 69° |
| 2026-05-04 21:06 | 41.90685 | -71.20910 | 2055 ft | 235 kts | 32° |
| 2026-05-04 21:06 | 41.92196 | -71.20272 | 2088 ft | 226 kts | 352° |
| 2026-05-04 21:07 | 41.93607 | -71.20888 | 2165 ft | 204 kts | 315° |
| 2026-05-04 21:07 | 41.94327 | -71.22332 | 2172 ft | 177 kts | 274° |
| 2026-05-04 21:07 | 41.94113 | -71.23851 | 2050 ft | 168 kts | 231° |
| 2026-05-04 21:07 | 41.93185 | -71.24730 | 2012 ft | 160 kts | 213° |
| 2026-05-04 21:08 | 41.92319 | -71.25695 | 1968 ft | 162 kts | 222° |
| 2026-05-04 21:08 | 41.91441 | -71.26590 | 1965 ft | 162 kts | 212° |
| 2026-05-04 21:08 | 41.90460 | -71.27322 | 1973 ft | 161 kts | 214° |
| 2026-05-04 21:08 | 41.89508 | -71.28165 | 1953 ft | 162 kts | 216° |
| 2026-05-04 21:09 | 41.88552 | -71.28990 | 1907 ft | 164 kts | 213° |
| 2026-05-04 21:09 | 41.87598 | -71.29779 | 1971 ft | 163 kts | 214° |
| 2026-05-04 21:09 | 41.86630 | -71.30608 | 1996 ft | 165 kts | 214° |
| 2026-05-04 21:09 | 41.85664 | -71.31426 | 1970 ft | 164 kts | 213° |
| 2026-05-04 21:10 | 41.84698 | -71.32234 | 1977 ft | 164 kts | 215° |
| 2026-05-04 21:10 | 41.83744 | -71.33057 | 2018 ft | 162 kts | 215° |
| 2026-05-04 21:10 | 41.82796 | -71.33857 | 2018 ft | 160 kts | 215° |
| 2026-05-04 21:10 | 41.81844 | -71.34656 | 2015 ft | 164 kts | 216° |
| 2026-05-04 21:11 | 41.80886 | -71.35477 | 1885 ft | 166 kts | 214° |
| 2026-05-04 21:11 | 41.79923 | -71.36277 | 1660 ft | 159 kts | 214° |
| 2026-05-04 21:11 | 41.79001 | -71.37070 | 1453 ft | 156 kts | 215° |
| 2026-05-04 21:11 | 41.78093 | -71.37831 | 1221 ft | 153 kts | 214° |
| 2026-05-04 21:12 | 41.77188 | -71.38598 | 1037 ft | 157 kts | 213° |
| 2026-05-04 21:12 | 41.76256 | -71.39382 | 829 ft | 156 kts | 213° |
| 2026-05-04 21:12 | 41.75360 | -71.40141 | 583 ft | 147 kts | 212° |
| 2026-05-04 21:12 | 41.74544 | -71.40836 | 405 ft | 130 kts | 215° |
| 2026-05-04 21:13 | 41.73812 | -71.41459 | 239 ft | 120 kts | 213° |
| 2026-05-04 21:13 | 41.73137 | -71.42020 | 87 ft | 113 kts | 213° |
| 2026-05-04 21:13 | 41.72552 | -71.42516 | 56 ft | 79 kts | 211° |
| 2026-05-04 21:13 | 41.72206 | -71.42807 | 59 ft | 49 kts | 213° |
| 2026-05-04 21:14 | 41.71934 | -71.43034 | 54 ft | 42 kts | 212° |
| 2026-05-04 21:14 | 41.71816 | -71.43217 | 57 ft | 14 kts | 282° |
| 2026-05-04 21:14 | 41.71828 | -71.43253 | 55 ft | 0 kts | 301° |
| 2026-05-04 21:15 | 41.71829 | -71.43255 | 55 ft | 1 kts | 300° |
| 2026-05-04 21:16 | 41.71836 | -71.43269 | 54 ft | 3 kts | 302° |
| 2026-05-04 21:16 | 41.71852 | -71.43303 | 57 ft | 6 kts | 302° |
| 2026-05-04 21:16 | 41.71880 | -71.43362 | 52 ft | 10 kts | 302° |
| 2026-05-04 21:16 | 41.71926 | -71.43456 | 58 ft | 15 kts | 303° |
| 2026-05-04 21:17 | 41.71986 | -71.43585 | 61 ft | 17 kts | 305° |
| 2026-05-04 21:17 | 41.72054 | -71.43724 | 60 ft | 18 kts | 302° |
| 2026-05-04 21:17 | 41.72158 | -71.43725 | 64 ft | 17 kts | 32° |
| 2026-05-04 21:17 | 41.72263 | -71.43637 | 65 ft | 18 kts | 32° |
| 2026-05-04 21:18 | 41.72351 | -71.43632 | 62 ft | 11 kts | 351° |
| 2026-05-04 21:18 | 41.72395 | -71.43628 | 61 ft | 0 kts | 5° |